sensor_id;sensor_type;location;lat;lon;timestamp;temperature;humidity
40670;DHT22;26355;45.528;9.234;2023-02-10T00:01:13;5.30;78.30
40670;DHT22;26355;45.528;9.234;2023-02-10T00:03:39;5.20;77.70
40670;DHT22;26355;45.528;9.234;2023-02-10T00:06:05;6.60;79.30
40670;DHT22;26355;45.528;9.234;2023-02-10T00:08:30;5.10;78.30
40670;DHT22;26355;45.528;9.234;2023-02-10T00:10:59;3.80;77.70
40670;DHT22;26355;45.528;9.234;2023-02-10T00:13:25;5.80;78.90
40670;DHT22;26355;45.528;9.234;2023-02-10T00:15:51;5.50;79.10
40670;DHT22;26355;45.528;9.234;2023-02-10T00:18:17;5.10;79.00
40670;DHT22;26355;45.528;9.234;2023-02-10T00:20:43;5.60;79.50
40670;DHT22;26355;45.528;9.234;2023-02-10T00:23:08;5.70;79.00
40670;DHT22;26355;45.528;9.234;2023-02-10T00:25:36;6.00;79.90
40670;DHT22;26355;45.528;9.234;2023-02-10T00:28:02;4.50;79.00
40670;DHT22;26355;45.528;9.234;2023-02-10T00:30:28;6.90;81.00
40670;DHT22;26355;45.528;9.234;2023-02-10T00:32:54;5.20;80.60
40670;DHT22;26355;45.528;9.234;2023-02-10T00:35:19;7.10;81.70
40670;DHT22;26355;45.528;9.234;2023-02-10T00:37:44;3.10;79.40
40670;DHT22;26355;45.528;9.234;2023-02-10T00:40:10;6.20;81.10
40670;DHT22;26355;45.528;9.234;2023-02-10T00:42:35;6.30;81.30
40670;DHT22;26355;45.528;9.234;2023-02-10T00:45:01;5.90;81.80
40670;DHT22;26355;45.528;9.234;2023-02-10T00:47:27;5.50;81.40
40670;DHT22;26355;45.528;9.234;2023-02-10T00:49:52;6.70;82.60
40670;DHT22;26355;45.528;9.234;2023-02-10T00:54:43;6.80;82.00
40670;DHT22;26355;45.528;9.234;2023-02-10T00:57:09;5.90;82.20
40670;DHT22;26355;45.528;9.234;2023-02-10T00:59:34;4.00;81.40
40670;DHT22;26355;45.528;9.234;2023-02-10T01:02:00;5.80;82.50
40670;DHT22;26355;45.528;9.234;2023-02-10T01:04:25;4.40;82.50
40670;DHT22;26355;45.528;9.234;2023-02-10T01:06:51;3.80;82.40
40670;DHT22;26355;45.528;9.234;2023-02-10T01:09:16;7.00;85.00
40670;DHT22;26355;45.528;9.234;2023-02-10T01:11:43;6.50;85.10
40670;DHT22;26355;45.528;9.234;2023-02-10T01:14:09;5.20;84.60
40670;DHT22;26355;45.528;9.234;2023-02-10T01:16:34;6.50;85.90
40670;DHT22;26355;45.528;9.234;2023-02-10T01:19:00;4.90;85.60
40670;DHT22;26355;45.528;9.234;2023-02-10T01:21:26;3.60;84.70
40670;DHT22;26355;45.528;9.234;2023-02-10T01:23:51;5.70;85.90
40670;DHT22;26355;45.528;9.234;2023-02-10T01:26:17;6.10;86.20
40670;DHT22;26355;45.528;9.234;2023-02-10T01:28:42;3.50;85.00
40670;DHT22;26355;45.528;9.234;2023-02-10T01:31:15;6.40;86.90
40670;DHT22;26355;45.528;9.234;2023-02-10T01:33:41;4.80;86.40
40670;DHT22;26355;45.528;9.234;2023-02-10T01:36:10;3.30;85.70
40670;DHT22;26355;45.528;9.234;2023-02-10T01:38:36;3.90;86.00
40670;DHT22;26355;45.528;9.234;2023-02-10T01:41:02;3.00;85.50
40670;DHT22;26355;45.528;9.234;2023-02-10T01:43:28;5.50;86.90
40670;DHT22;26355;45.528;9.234;2023-02-10T01:45:53;6.40;88.60
40670;DHT22;26355;45.528;9.234;2023-02-10T01:48:19;4.10;86.30
40670;DHT22;26355;45.528;9.234;2023-02-10T01:50:50;4.70;87.30
40670;DHT22;26355;45.528;9.234;2023-02-10T01:53:16;4.40;87.70
40670;DHT22;26355;45.528;9.234;2023-02-10T01:55:43;6.20;89.30
40670;DHT22;26355;45.528;9.234;2023-02-10T01:58:10;3.40;87.70
40670;DHT22;26355;45.528;9.234;2023-02-10T02:00:36;7.00;89.90
40670;DHT22;26355;45.528;9.234;2023-02-10T02:03:02;4.00;88.20
40670;DHT22;26355;45.528;9.234;2023-02-10T02:05:29;3.90;88.60
40670;DHT22;26355;45.528;9.234;2023-02-10T02:08:01;3.20;88.60
40670;DHT22;26355;45.528;9.234;2023-02-10T02:10:30;4.30;89.50
40670;DHT22;26355;45.528;9.234;2023-02-10T02:13:06;5.40;89.90
40670;DHT22;26355;45.528;9.234;2023-02-10T02:15:43;3.40;88.60
40670;DHT22;26355;45.528;9.234;2023-02-10T02:21:02;2.90;88.50
40670;DHT22;26355;45.528;9.234;2023-02-10T02:29:05;6.10;90.30
40670;DHT22;26355;45.528;9.234;2023-02-10T02:31:28;5.20;90.10
40670;DHT22;26355;45.528;9.234;2023-02-10T02:34:05;3.00;89.00
40670;DHT22;26355;45.528;9.234;2023-02-10T02:39:17;4.70;90.20
40670;DHT22;26355;45.528;9.234;2023-02-10T02:41:42;3.80;89.80
40670;DHT22;26355;45.528;9.234;2023-02-10T02:44:08;5.10;90.90
40670;DHT22;26355;45.528;9.234;2023-02-10T02:49:03;2.50;90.10
40670;DHT22;26355;45.528;9.234;2023-02-10T02:51:36;3.40;90.90
40670;DHT22;26355;45.528;9.234;2023-02-10T02:54:48;5.30;91.80
40670;DHT22;26355;45.528;9.234;2023-02-10T02:59:16;3.70;92.00
40670;DHT22;26355;45.528;9.234;2023-02-10T03:01:48;4.20;92.20
40670;DHT22;26355;45.528;9.234;2023-02-10T03:04:15;3.80;92.20
40670;DHT22;26355;45.528;9.234;2023-02-10T03:06:41;5.10;92.60
40670;DHT22;26355;45.528;9.234;2023-02-10T03:09:06;4.90;92.80
40670;DHT22;26355;45.528;9.234;2023-02-10T03:11:32;3.70;92.30
40670;DHT22;26355;45.528;9.234;2023-02-10T03:13:57;2.20;92.10
40670;DHT22;26355;45.528;9.234;2023-02-10T03:16:23;5.10;92.60
40670;DHT22;26355;45.528;9.234;2023-02-10T03:18:48;4.90;92.40
40670;DHT22;26355;45.528;9.234;2023-02-10T03:21:14;4.70;92.20
40670;DHT22;26355;45.528;9.234;2023-02-10T03:26:05;4.50;92.40
40670;DHT22;26355;45.528;9.234;2023-02-10T03:28:31;3.20;92.10
40670;DHT22;26355;45.528;9.234;2023-02-10T03:30:56;4.60;92.10
40670;DHT22;26355;45.528;9.234;2023-02-10T03:33:22;2.50;92.10
40670;DHT22;26355;45.528;9.234;2023-02-10T03:35:48;4.20;92.40
40670;DHT22;26355;45.528;9.234;2023-02-10T03:38:14;6.40;92.80
40670;DHT22;26355;45.528;9.234;2023-02-10T03:40:40;4.60;92.60
40670;DHT22;26355;45.528;9.234;2023-02-10T03:43:06;5.50;93.00
40670;DHT22;26355;45.528;9.234;2023-02-10T03:45:32;5.00;92.80
40670;DHT22;26355;45.528;9.234;2023-02-10T03:47:57;4.80;92.80
40670;DHT22;26355;45.528;9.234;2023-02-10T03:50:24;4.20;93.00
40670;DHT22;26355;45.528;9.234;2023-02-10T03:52:49;3.50;92.80
40670;DHT22;26355;45.528;9.234;2023-02-10T03:55:15;3.30;92.80
40670;DHT22;26355;45.528;9.234;2023-02-10T03:57:43;4.40;93.10
40670;DHT22;26355;45.528;9.234;2023-02-10T04:00:08;3.20;92.90
40670;DHT22;26355;45.528;9.234;2023-02-10T04:02:34;2.40;92.80
40670;DHT22;26355;45.528;9.234;2023-02-10T04:05:00;4.30;93.50
40670;DHT22;26355;45.528;9.234;2023-02-10T04:07:25;1.90;93.20
40670;DHT22;26355;45.528;9.234;2023-02-10T04:12:18;3.60;93.80
40670;DHT22;26355;45.528;9.234;2023-02-10T04:14:43;4.00;94.20
40670;DHT22;26355;45.528;9.234;2023-02-10T04:17:08;3.90;94.20
40670;DHT22;26355;45.528;9.234;2023-02-10T04:19:34;3.80;94.10
40670;DHT22;26355;45.528;9.234;2023-02-10T04:21:59;4.00;94.00
40670;DHT22;26355;45.528;9.234;2023-02-10T04:24:25;4.30;94.60
40670;DHT22;26355;45.528;9.234;2023-02-10T04:26:50;4.00;94.50
40670;DHT22;26355;45.528;9.234;2023-02-10T04:29:16;4.80;94.50
40670;DHT22;26355;45.528;9.234;2023-02-10T04:31:41;2.70;93.80
40670;DHT22;26355;45.528;9.234;2023-02-10T04:34:07;5.30;94.50
40670;DHT22;26355;45.528;9.234;2023-02-10T04:36:32;3.70;94.20
40670;DHT22;26355;45.528;9.234;2023-02-10T04:38:58;4.40;94.50
40670;DHT22;26355;45.528;9.234;2023-02-10T04:41:23;4.20;94.80
40670;DHT22;26355;45.528;9.234;2023-02-10T04:43:49;5.10;95.00
40670;DHT22;26355;45.528;9.234;2023-02-10T04:46:14;4.10;94.60
40670;DHT22;26355;45.528;9.234;2023-02-10T04:48:40;2.00;93.90
40670;DHT22;26355;45.528;9.234;2023-02-10T04:51:06;5.00;94.70
40670;DHT22;26355;45.528;9.234;2023-02-10T04:53:32;5.60;94.90
40670;DHT22;26355;45.528;9.234;2023-02-10T04:55:58;4.80;95.20
40670;DHT22;26355;45.528;9.234;2023-02-10T04:58:23;4.70;95.30
40670;DHT22;26355;45.528;9.234;2023-02-10T05:00:53;1.80;94.80
40670;DHT22;26355;45.528;9.234;2023-02-10T05:03:19;4.10;95.40
40670;DHT22;26355;45.528;9.234;2023-02-10T05:05:44;5.20;95.70
40670;DHT22;26355;45.528;9.234;2023-02-10T05:08:10;3.60;95.40
40670;DHT22;26355;45.528;9.234;2023-02-10T05:10:36;4.20;95.50
40670;DHT22;26355;45.528;9.234;2023-02-10T05:13:04;4.30;95.50
40670;DHT22;26355;45.528;9.234;2023-02-10T05:15:30;4.40;95.80
40670;DHT22;26355;45.528;9.234;2023-02-10T05:17:55;2.80;95.40
40670;DHT22;26355;45.528;9.234;2023-02-10T05:20:21;4.50;96.10
40670;DHT22;26355;45.528;9.234;2023-02-10T05:22:46;3.70;95.90
40670;DHT22;26355;45.528;9.234;2023-02-10T05:25:12;3.80;96.10
40670;DHT22;26355;45.528;9.234;2023-02-10T05:27:38;3.90;96.20
40670;DHT22;26355;45.528;9.234;2023-02-10T05:30:04;5.30;96.30
40670;DHT22;26355;45.528;9.234;2023-02-10T05:32:30;3.10;95.90
40670;DHT22;26355;45.528;9.234;2023-02-10T05:34:55;4.40;96.00
40670;DHT22;26355;45.528;9.234;2023-02-10T05:37:21;3.20;95.80
40670;DHT22;26355;45.528;9.234;2023-02-10T05:39:49;4.70;96.20
40670;DHT22;26355;45.528;9.234;2023-02-10T05:42:15;4.80;96.20
40670;DHT22;26355;45.528;9.234;2023-02-10T05:44:43;4.00;96.30
40670;DHT22;26355;45.528;9.234;2023-02-10T05:47:09;4.30;96.40
40670;DHT22;26355;45.528;9.234;2023-02-10T05:49:34;4.80;96.50
40670;DHT22;26355;45.528;9.234;2023-02-10T05:52:00;4.10;96.30
40670;DHT22;26355;45.528;9.234;2023-02-10T05:54:25;4.20;96.40
40670;DHT22;26355;45.528;9.234;2023-02-10T05:56:51;4.60;96.50
40670;DHT22;26355;45.528;9.234;2023-02-10T06:01:43;5.30;97.20
40670;DHT22;26355;45.528;9.234;2023-02-10T06:04:08;3.60;97.00
40670;DHT22;26355;45.528;9.234;2023-02-10T06:06:34;5.10;97.50
40670;DHT22;26355;45.528;9.234;2023-02-10T06:08:59;2.70;97.00
40670;DHT22;26355;45.528;9.234;2023-02-10T06:11:25;4.00;97.40
40670;DHT22;26355;45.528;9.234;2023-02-10T06:13:50;1.80;97.20
40670;DHT22;26355;45.528;9.234;2023-02-10T06:16:16;2.60;97.30
40670;DHT22;26355;45.528;9.234;2023-02-10T06:18:41;4.40;97.70
40670;DHT22;26355;45.528;9.234;2023-02-10T06:21:07;3.90;97.20
40670;DHT22;26355;45.528;9.234;2023-02-10T06:23:36;5.50;97.70
40670;DHT22;26355;45.528;9.234;2023-02-10T06:26:02;5.00;97.30
40670;DHT22;26355;45.528;9.234;2023-02-10T06:28:27;3.00;96.90
40670;DHT22;26355;45.528;9.234;2023-02-10T06:30:53;4.40;97.20
40670;DHT22;26355;45.528;9.234;2023-02-10T06:33:18;4.40;97.20
40670;DHT22;26355;45.528;9.234;2023-02-10T06:35:45;4.50;97.00
40670;DHT22;26355;45.528;9.234;2023-02-10T06:38:11;5.30;97.00
40670;DHT22;26355;45.528;9.234;2023-02-10T06:40:39;5.80;96.80
40670;DHT22;26355;45.528;9.234;2023-02-10T06:45:30;3.90;96.70
40670;DHT22;26355;45.528;9.234;2023-02-10T06:47:57;3.20;96.40
40670;DHT22;26355;45.528;9.234;2023-02-10T06:50:23;4.80;96.50
40670;DHT22;26355;45.528;9.234;2023-02-10T06:52:48;4.60;96.60
40670;DHT22;26355;45.528;9.234;2023-02-10T06:55:14;5.10;96.80
40670;DHT22;26355;45.528;9.234;2023-02-10T06:57:39;3.40;96.30
40670;DHT22;26355;45.528;9.234;2023-02-10T07:00:06;5.60;96.40
40670;DHT22;26355;45.528;9.234;2023-02-10T07:02:33;3.90;96.10
40670;DHT22;26355;45.528;9.234;2023-02-10T07:04:58;5.00;96.30
40670;DHT22;26355;45.528;9.234;2023-02-10T07:07:24;6.00;96.10
40670;DHT22;26355;45.528;9.234;2023-02-10T07:09:49;5.40;95.60
40670;DHT22;26355;45.528;9.234;2023-02-10T07:12:18;5.70;95.00
40670;DHT22;26355;45.528;9.234;2023-02-10T07:14:44;6.00;94.50
40670;DHT22;26355;45.528;9.234;2023-02-10T07:17:10;5.70;94.30
40670;DHT22;26355;45.528;9.234;2023-02-10T07:19:35;7.30;93.80
40670;DHT22;26355;45.528;9.234;2023-02-10T07:22:01;7.00;93.40
40670;DHT22;26355;45.528;9.234;2023-02-10T07:24:30;8.00;93.00
40670;DHT22;26355;45.528;9.234;2023-02-10T07:26:55;8.10;92.40
40670;DHT22;26355;45.528;9.234;2023-02-10T07:29:21;9.20;92.00
40670;DHT22;26355;45.528;9.234;2023-02-10T07:31:46;7.50;91.20
40670;DHT22;26355;45.528;9.234;2023-02-10T07:34:12;10.10;90.90
40670;DHT22;26355;45.528;9.234;2023-02-10T07:36:37;10.30;90.60
40670;DHT22;26355;45.528;9.234;2023-02-10T07:39:03;9.10;89.30
40670;DHT22;26355;45.528;9.234;2023-02-10T07:41:28;10.60;88.60
40670;DHT22;26355;45.528;9.234;2023-02-10T07:43:54;10.20;88.00
40670;DHT22;26355;45.528;9.234;2023-02-10T07:46:19;10.10;86.80
40670;DHT22;26355;45.528;9.234;2023-02-10T07:48:45;9.60;86.50
40670;DHT22;26355;45.528;9.234;2023-02-10T07:51:10;10.20;85.60
40670;DHT22;26355;45.528;9.234;2023-02-10T07:53:35;13.60;87.40
40670;DHT22;26355;45.528;9.234;2023-02-10T07:56:03;12.40;83.60
40670;DHT22;26355;45.528;9.234;2023-02-10T07:58:28;10.50;82.20
40670;DHT22;26355;45.528;9.234;2023-02-10T08:00:55;11.60;82.30
40670;DHT22;26355;45.528;9.234;2023-02-10T08:03:21;12.10;81.70
40670;DHT22;26355;45.528;9.234;2023-02-10T08:05:46;11.90;80.30
40670;DHT22;26355;45.528;9.234;2023-02-10T08:08:14;11.30;79.40
40670;DHT22;26355;45.528;9.234;2023-02-10T08:10:40;11.00;79.90
40670;DHT22;26355;45.528;9.234;2023-02-10T08:13:05;11.70;79.80
40670;DHT22;26355;45.528;9.234;2023-02-10T08:15:31;12.40;80.40
40670;DHT22;26355;45.528;9.234;2023-02-10T08:17:58;14.50;82.30
40670;DHT22;26355;45.528;9.234;2023-02-10T08:20:23;11.80;80.10
40670;DHT22;26355;45.528;9.234;2023-02-10T08:22:52;11.50;79.40
40670;DHT22;26355;45.528;9.234;2023-02-10T08:25:18;12.60;79.30
40670;DHT22;26355;45.528;9.234;2023-02-10T08:27:43;12.20;78.70
40670;DHT22;26355;45.528;9.234;2023-02-10T08:30:09;12.60;78.80
40670;DHT22;26355;45.528;9.234;2023-02-10T08:32:35;12.20;78.70
40670;DHT22;26355;45.528;9.234;2023-02-10T08:35:00;13.90;79.80
40670;DHT22;26355;45.528;9.234;2023-02-10T08:37:32;10.80;77.70
40670;DHT22;26355;45.528;9.234;2023-02-10T08:39:58;11.70;78.00
40670;DHT22;26355;45.528;9.234;2023-02-10T08:42:24;11.80;79.10
40670;DHT22;26355;45.528;9.234;2023-02-10T08:44:49;11.70;79.40
40670;DHT22;26355;45.528;9.234;2023-02-10T08:47:15;11.50;79.70
40670;DHT22;26355;45.528;9.234;2023-02-10T08:49:40;9.90;79.30
40670;DHT22;26355;45.528;9.234;2023-02-10T08:52:06;11.70;80.30
40670;DHT22;26355;45.528;9.234;2023-02-10T08:54:31;10.30;79.80
40670;DHT22;26355;45.528;9.234;2023-02-10T08:56:57;12.00;80.50
40670;DHT22;26355;45.528;9.234;2023-02-10T08:59:22;10.40;79.90
40670;DHT22;26355;45.528;9.234;2023-02-10T09:01:48;10.90;80.40
40670;DHT22;26355;45.528;9.234;2023-02-10T09:04:14;10.70;79.20
40670;DHT22;26355;45.528;9.234;2023-02-10T09:06:40;10.20;78.30
40670;DHT22;26355;45.528;9.234;2023-02-10T09:09:11;12.50;79.70
40670;DHT22;26355;45.528;9.234;2023-02-10T09:11:37;10.10;78.90
40670;DHT22;26355;45.528;9.234;2023-02-10T09:14:02;10.80;79.30
40670;DHT22;26355;45.528;9.234;2023-02-10T09:16:28;10.40;79.20
40670;DHT22;26355;45.528;9.234;2023-02-10T09:18:53;10.30;79.30
40670;DHT22;26355;45.528;9.234;2023-02-10T09:21:19;11.70;79.60
40670;DHT22;26355;45.528;9.234;2023-02-10T09:23:44;11.80;78.70
40670;DHT22;26355;45.528;9.234;2023-02-10T09:26:10;10.60;77.50
40670;DHT22;26355;45.528;9.234;2023-02-10T09:28:36;10.80;77.70
40670;DHT22;26355;45.528;9.234;2023-02-10T09:31:03;10.50;78.30
40670;DHT22;26355;45.528;9.234;2023-02-10T09:33:29;11.60;77.40
40670;DHT22;26355;45.528;9.234;2023-02-10T09:35:54;11.00;77.20
40670;DHT22;26355;45.528;9.234;2023-02-10T09:38:20;11.10;77.20
40670;DHT22;26355;45.528;9.234;2023-02-10T09:46:00;12.90;78.10
40670;DHT22;26355;45.528;9.234;2023-02-10T09:48:55;11.10;76.60
40670;DHT22;26355;45.528;9.234;2023-02-10T09:51:38;9.90;76.10
40670;DHT22;26355;45.528;9.234;2023-02-10T09:54:00;12.70;77.00
40670;DHT22;26355;45.528;9.234;2023-02-10T09:56:26;11.20;76.40
40670;DHT22;26355;45.528;9.234;2023-02-10T09:58:53;11.40;76.20
40670;DHT22;26355;45.528;9.234;2023-02-10T10:04:01;10.10;73.20
40670;DHT22;26355;45.528;9.234;2023-02-10T10:06:31;11.90;74.30
40670;DHT22;26355;45.528;9.234;2023-02-10T10:08:59;11.90;75.20
40670;DHT22;26355;45.528;9.234;2023-02-10T10:14:04;12.30;73.80
40670;DHT22;26355;45.528;9.234;2023-02-10T10:16:42;12.60;73.30
40670;DHT22;26355;45.528;9.234;2023-02-10T10:19:35;11.10;72.50
40670;DHT22;26355;45.528;9.234;2023-02-10T10:22:13;11.10;73.40
40670;DHT22;26355;45.528;9.234;2023-02-10T10:32:31;14.70;73.20
40670;DHT22;26355;45.528;9.234;2023-02-10T10:34:58;12.20;70.00
40670;DHT22;26355;45.528;9.234;2023-02-10T10:37:24;13.20;70.00
40670;DHT22;26355;45.528;9.234;2023-02-10T10:39:51;11.50;69.60
40670;DHT22;26355;45.528;9.234;2023-02-10T10:48:07;12.50;70.10
40670;DHT22;26355;45.528;9.234;2023-02-10T10:50:33;11.80;69.90
40670;DHT22;26355;45.528;9.234;2023-02-10T10:52:59;12.30;70.10
40670;DHT22;26355;45.528;9.234;2023-02-10T10:55:37;12.20;70.00
40670;DHT22;26355;45.528;9.234;2023-02-10T10:58:08;12.00;70.40
40670;DHT22;26355;45.528;9.234;2023-02-10T11:00:35;12.30;70.30
40670;DHT22;26355;45.528;9.234;2023-02-10T11:03:02;12.10;69.80
40670;DHT22;26355;45.528;9.234;2023-02-10T11:05:30;11.80;69.10
40670;DHT22;26355;45.528;9.234;2023-02-10T11:07:56;12.80;68.80
40670;DHT22;26355;45.528;9.234;2023-02-10T11:10:24;13.30;69.20
40670;DHT22;26355;45.528;9.234;2023-02-10T11:12:50;14.80;67.90
40670;DHT22;26355;45.528;9.234;2023-02-10T11:15:38;16.10;64.90
40670;DHT22;26355;45.528;9.234;2023-02-10T11:18:01;16.40;63.80
40670;DHT22;26355;45.528;9.234;2023-02-10T11:20:32;17.10;63.00
40670;DHT22;26355;45.528;9.234;2023-02-10T11:23:16;17.30;61.20
40670;DHT22;26355;45.528;9.234;2023-02-10T11:25:41;17.70;60.20
40670;DHT22;26355;45.528;9.234;2023-02-10T11:28:17;17.90;60.20
40670;DHT22;26355;45.528;9.234;2023-02-10T11:30:45;17.70;59.00
40670;DHT22;26355;45.528;9.234;2023-02-10T11:33:21;17.50;59.20
40670;DHT22;26355;45.528;9.234;2023-02-10T11:35:48;17.90;59.10
40670;DHT22;26355;45.528;9.234;2023-02-10T11:38:18;17.10;57.90
40670;DHT22;26355;45.528;9.234;2023-02-10T11:40:58;17.80;59.50
40670;DHT22;26355;45.528;9.234;2023-02-10T11:43:29;16.70;59.10
40670;DHT22;26355;45.528;9.234;2023-02-10T11:45:59;16.80;58.80
40670;DHT22;26355;45.528;9.234;2023-02-10T11:48:26;16.60;58.90
40670;DHT22;26355;45.528;9.234;2023-02-10T11:51:05;16.80;59.30
40670;DHT22;26355;45.528;9.234;2023-02-10T11:53:33;15.70;58.90
40670;DHT22;26355;45.528;9.234;2023-02-10T11:56:01;16.20;59.00
40670;DHT22;26355;45.528;9.234;2023-02-10T12:01:41;15.90;59.20
40670;DHT22;26355;45.528;9.234;2023-02-10T12:04:52;15.90;58.90
40670;DHT22;26355;45.528;9.234;2023-02-10T12:07:09;15.50;59.10
40670;DHT22;26355;45.528;9.234;2023-02-10T12:09:46;15.50;60.00
40670;DHT22;26355;45.528;9.234;2023-02-10T12:12:47;15.50;59.70
40670;DHT22;26355;45.528;9.234;2023-02-10T12:17:40;15.10;59.80
40670;DHT22;26355;45.528;9.234;2023-02-10T12:25:09;14.60;60.60
40670;DHT22;26355;45.528;9.234;2023-02-10T12:32:51;14.20;61.60
40670;DHT22;26355;45.528;9.234;2023-02-10T12:37:51;13.80;62.10
40670;DHT22;26355;45.528;9.234;2023-02-10T12:45:43;13.70;61.60
40670;DHT22;26355;45.528;9.234;2023-02-10T12:48:16;13.70;61.30
40670;DHT22;26355;45.528;9.234;2023-02-10T12:55:59;13.40;61.50
40670;DHT22;26355;45.528;9.234;2023-02-10T12:58:30;13.20;62.10
40670;DHT22;26355;45.528;9.234;2023-02-10T13:01:40;13.20;62.10
40670;DHT22;26355;45.528;9.234;2023-02-10T13:03:46;13.10;61.90
40670;DHT22;26355;45.528;9.234;2023-02-10T13:11:45;13.00;62.50
40670;DHT22;26355;45.528;9.234;2023-02-10T13:14:14;12.90;62.60
40670;DHT22;26355;45.528;9.234;2023-02-10T13:16:50;13.00;62.60
40670;DHT22;26355;45.528;9.234;2023-02-10T13:21:49;12.90;62.00
40670;DHT22;26355;45.528;9.234;2023-02-10T13:32:47;12.70;61.90
40670;DHT22;26355;45.528;9.234;2023-02-10T13:35:18;13.10;62.90
40670;DHT22;26355;45.528;9.234;2023-02-10T13:37:49;12.60;63.00
40670;DHT22;26355;45.528;9.234;2023-02-10T13:40:20;12.30;62.10
40670;DHT22;26355;45.528;9.234;2023-02-10T13:42:50;12.60;61.90
40670;DHT22;26355;45.528;9.234;2023-02-10T13:45:18;12.50;62.20
40670;DHT22;26355;45.528;9.234;2023-02-10T13:52:47;12.50;62.40
40670;DHT22;26355;45.528;9.234;2023-02-10T13:57:49;13.10;62.50
40670;DHT22;26355;45.528;9.234;2023-02-10T14:00:16;12.40;62.00
40670;DHT22;26355;45.528;9.234;2023-02-10T14:02:43;12.30;61.70
40670;DHT22;26355;45.528;9.234;2023-02-10T14:05:25;12.30;62.10
40670;DHT22;26355;45.528;9.234;2023-02-10T14:07:50;12.00;61.70
40670;DHT22;26355;45.528;9.234;2023-02-10T14:15:24;12.50;61.80
40670;DHT22;26355;45.528;9.234;2023-02-10T14:17:57;12.60;61.10
40670;DHT22;26355;45.528;9.234;2023-02-10T14:20:27;12.80;62.10
40670;DHT22;26355;45.528;9.234;2023-02-10T14:22:53;12.90;60.70
40670;DHT22;26355;45.528;9.234;2023-02-10T14:25:27;12.70;60.60
40670;DHT22;26355;45.528;9.234;2023-02-10T14:27:53;12.70;60.70
40670;DHT22;26355;45.528;9.234;2023-02-10T14:32:45;12.80;60.70
40670;DHT22;26355;45.528;9.234;2023-02-10T14:35:14;12.60;60.90
40670;DHT22;26355;45.528;9.234;2023-02-10T14:37:47;13.10;61.10
40670;DHT22;26355;45.528;9.234;2023-02-10T14:40:17;12.80;60.70
40670;DHT22;26355;45.528;9.234;2023-02-10T14:42:42;12.80;60.80
40670;DHT22;26355;45.528;9.234;2023-02-10T14:45:26;12.70;60.80
40670;DHT22;26355;45.528;9.234;2023-02-10T14:47:53;12.60;60.80
40670;DHT22;26355;45.528;9.234;2023-02-10T14:50:23;12.50;60.80
40670;DHT22;26355;45.528;9.234;2023-02-10T14:52:49;12.90;60.60
40670;DHT22;26355;45.528;9.234;2023-02-10T14:55:25;12.70;60.40
40670;DHT22;26355;45.528;9.234;2023-02-10T14:57:51;12.60;60.00
40670;DHT22;26355;45.528;9.234;2023-02-10T15:00:17;12.70;60.50
40670;DHT22;26355;45.528;9.234;2023-02-10T15:02:45;12.60;60.90
40670;DHT22;26355;45.528;9.234;2023-02-10T15:05:14;12.50;60.80
40670;DHT22;26355;45.528;9.234;2023-02-10T15:07:42;13.00;60.90
40670;DHT22;26355;45.528;9.234;2023-02-10T15:10:18;12.50;60.60
40670;DHT22;26355;45.528;9.234;2023-02-10T15:12:44;12.40;61.00
40670;DHT22;26355;45.528;9.234;2023-02-10T15:17:42;12.20;61.80
40670;DHT22;26355;45.528;9.234;2023-02-10T15:22:41;12.30;61.60
40670;DHT22;26355;45.528;9.234;2023-02-10T15:25:57;12.30;61.80
40670;DHT22;26355;45.528;9.234;2023-02-10T15:33:15;11.60;61.50
40670;DHT22;26355;45.528;9.234;2023-02-10T15:35:50;11.90;62.10
40670;DHT22;26355;45.528;9.234;2023-02-10T15:38:16;11.80;62.30
40670;DHT22;26355;45.528;9.234;2023-02-10T15:40:41;11.80;62.60
40670;DHT22;26355;45.528;9.234;2023-02-10T15:43:28;11.80;61.70
40670;DHT22;26355;45.528;9.234;2023-02-10T15:46:12;11.70;61.70
40670;DHT22;26355;45.528;9.234;2023-02-10T15:48:39;11.70;61.80
40670;DHT22;26355;45.528;9.234;2023-02-10T15:51:04;11.70;62.20
40670;DHT22;26355;45.528;9.234;2023-02-10T15:53:30;11.60;62.50
40670;DHT22;26355;45.528;9.234;2023-02-10T15:55:56;11.60;62.10
40670;DHT22;26355;45.528;9.234;2023-02-10T15:58:21;11.60;62.20
40670;DHT22;26355;45.528;9.234;2023-02-10T16:00:47;11.60;62.40
40670;DHT22;26355;45.528;9.234;2023-02-10T16:03:12;11.80;63.10
40670;DHT22;26355;45.528;9.234;2023-02-10T16:05:39;11.40;62.90
40670;DHT22;26355;45.528;9.234;2023-02-10T16:08:26;11.10;63.10
40670;DHT22;26355;45.528;9.234;2023-02-10T16:10:50;11.70;63.70
40670;DHT22;26355;45.528;9.234;2023-02-10T16:13:16;11.40;63.80
40670;DHT22;26355;45.528;9.234;2023-02-10T16:15:43;11.10;63.80
40670;DHT22;26355;45.528;9.234;2023-02-10T16:18:10;11.50;64.10
40670;DHT22;26355;45.528;9.234;2023-02-10T16:20:37;11.60;64.60
40670;DHT22;26355;45.528;9.234;2023-02-10T16:23:02;12.50;65.20
40670;DHT22;26355;45.528;9.234;2023-02-10T16:25:28;11.10;64.60
40670;DHT22;26355;45.528;9.234;2023-02-10T16:27:54;11.00;64.50
40670;DHT22;26355;45.528;9.234;2023-02-10T16:30:21;11.50;64.90
40670;DHT22;26355;45.528;9.234;2023-02-10T16:32:47;11.20;64.70
40670;DHT22;26355;45.528;9.234;2023-02-10T16:35:13;11.60;64.70
40670;DHT22;26355;45.528;9.234;2023-02-10T16:37:38;10.60;64.10
40670;DHT22;26355;45.528;9.234;2023-02-10T16:40:04;11.80;64.60
40670;DHT22;26355;45.528;9.234;2023-02-10T16:42:29;11.50;64.40
40670;DHT22;26355;45.528;9.234;2023-02-10T16:44:55;12.80;64.70
40670;DHT22;26355;45.528;9.234;2023-02-10T16:47:21;11.50;64.00
40670;DHT22;26355;45.528;9.234;2023-02-10T16:49:47;11.40;64.10
40670;DHT22;26355;45.528;9.234;2023-02-10T16:52:12;13.10;65.00
40670;DHT22;26355;45.528;9.234;2023-02-10T16:54:39;11.80;64.40
40670;DHT22;26355;45.528;9.234;2023-02-10T16:57:05;11.40;64.20
40670;DHT22;26355;45.528;9.234;2023-02-10T16:59:31;11.30;64.30
40670;DHT22;26355;45.528;9.234;2023-02-10T17:01:57;11.30;64.40
40670;DHT22;26355;45.528;9.234;2023-02-10T17:04:23;11.40;64.80
40670;DHT22;26355;45.528;9.234;2023-02-10T17:06:49;11.20;64.60
40670;DHT22;26355;45.528;9.234;2023-02-10T17:09:15;11.80;65.10
40670;DHT22;26355;45.528;9.234;2023-02-10T17:11:41;11.00;65.20
40670;DHT22;26355;45.528;9.234;2023-02-10T17:14:07;11.30;65.20
40670;DHT22;26355;45.528;9.234;2023-02-10T17:16:36;11.10;65.10
40670;DHT22;26355;45.528;9.234;2023-02-10T17:19:03;11.10;65.70
40670;DHT22;26355;45.528;9.234;2023-02-10T17:21:29;10.90;65.90
40670;DHT22;26355;45.528;9.234;2023-02-10T17:23:55;10.70;65.70
40670;DHT22;26355;45.528;9.234;2023-02-10T17:26:20;11.30;66.20
40670;DHT22;26355;45.528;9.234;2023-02-10T17:28:46;11.50;65.70
40670;DHT22;26355;45.528;9.234;2023-02-10T17:31:15;10.00;65.00
40670;DHT22;26355;45.528;9.234;2023-02-10T17:33:41;10.80;65.60
40670;DHT22;26355;45.528;9.234;2023-02-10T17:36:14;10.70;65.50
40670;DHT22;26355;45.528;9.234;2023-02-10T17:38:40;11.40;66.10
40670;DHT22;26355;45.528;9.234;2023-02-10T17:41:13;10.80;66.10
40670;DHT22;26355;45.528;9.234;2023-02-10T17:43:39;9.00;65.70